Time;durP1;ratioP1;P1;durP2;ratioP2;P2;SDS_P1;SDS_P2;PMS_P1;PMS_P2;Temp;Humidity;BMP_temperature;BMP_pressure;BME280_temperature;BME280_humidity;BME280_pressure;Samples;Min_cycle;Max_cycle;Signal;HPM_P1;HPM_P2
2021/04/10 00:00:48;;;;;;;3.23;1.20;;;;;;;13.14;48.78;97745.03;5023355;28;20202;-75
2021/04/10 00:03:15;;;;;;;3.80;1.60;;;;;;;13.03;47.96;97749.28;5027314;28;20203;-75
2021/04/10 00:05:42;;;;;;;4.60;1.30;;;;;;;12.98;47.88;97750.97;5030677;28;20217;-75
2021/04/10 00:08:09;;;;;;;3.43;1.50;;;;;;;12.91;47.89;97750.19;5027012;28;20230;-76
2021/04/10 00:10:37;;;;;;;3.53;1.20;;;;;;;12.91;48.03;97739.50;5029344;28;20268;-75
2021/04/10 00:13:04;;;;;;;4.43;1.50;;;;;;;12.88;49.75;97742.59;5031596;28;20654;-76
2021/04/10 00:15:31;;;;;;;3.80;1.60;;;;;;;12.88;50.35;97731.88;5024043;28;20202;-75
2021/04/10 00:17:58;;;;;;;5.77;1.70;;;;;;;12.93;50.81;97736.34;5025351;28;20320;-74
2021/04/10 00:20:25;;;;;;;6.27;1.40;;;;;;;12.97;50.19;97738.63;5024614;28;20205;-75
2021/04/10 00:22:52;;;;;;;4.37;1.50;;;;;;;13.01;50.20;97734.47;5025996;28;20226;-75
2021/04/10 00:25:20;;;;;;;4.10;1.40;;;;;;;13.03;50.02;97735.88;5029976;28;20206;-75
2021/04/10 00:27:48;;;;;;;4.53;1.63;;;;;;;13.23;48.38;97739.13;5023686;28;20227;-75
2021/04/10 00:30:16;;;;;;;4.70;1.30;;;;;;;13.35;48.18;97739.19;5024980;28;20654;-75
2021/04/10 00:32:44;;;;;;;3.37;1.10;;;;;;;13.58;47.25;97744.69;5020107;28;20262;-74
2021/04/10 00:35:12;;;;;;;2.73;1.27;;;;;;;13.99;55.46;97734.81;5026415;28;20236;-74
2021/04/10 00:37:39;;;;;;;4.97;1.30;;;;;;;14.01;45.82;97746.16;5024552;28;20252;-74
2021/04/10 00:40:07;;;;;;;2.70;1.20;;;;;;;13.99;45.29;97744.75;5029537;28;20211;-73
2021/04/10 00:42:35;;;;;;;2.57;1.40;;;;;;;14.16;44.77;97745.72;5024745;28;20231;-74
2021/04/10 00:45:03;;;;;;;4.10;1.37;;;;;;;14.11;45.18;97749.09;5023482;28;20212;-75
2021/04/10 00:47:30;;;;;;;2.00;0.90;;;;;;;14.16;44.56;97741.19;5023116;28;20226;-75
2021/04/10 00:49:57;;;;;;;2.43;1.10;;;;;;;14.12;44.40;97736.50;5029970;28;20213;-76
2021/04/10 00:52:24;;;;;;;3.50;1.40;;;;;;;14.28;43.58;97739.38;5019960;28;20206;-74
2021/04/10 00:54:52;;;;;;;2.43;1.27;;;;;;;14.38;43.45;97734.25;5022397;28;20214;-76
2021/04/10 00:57:19;;;;;;;4.17;1.23;;;;;;;14.26;43.84;97733.41;5028220;28;20231;-76
2021/04/10 00:59:46;;;;;;;3.00;1.00;;;;;;;14.15;43.23;97728.81;5037091;28;20203;-76
2021/04/10 01:02:14;;;;;;;4.77;1.27;;;;;;;14.23;43.55;97727.69;5031434;28;20230;-76
2021/04/10 01:04:41;;;;;;;2.80;1.30;;;;;;;14.23;42.92;97727.69;5021114;28;20206;-77
2021/04/10 01:07:08;;;;;;;5.17;1.20;;;;;;;14.25;43.07;97720.22;5020592;28;20236;-77
2021/04/10 01:09:36;;;;;;;4.20;1.07;;;;;;;14.30;42.95;97728.41;5030957;28;20213;-77
2021/04/10 01:12:13;;;;;;;2.00;1.00;;;;;;;14.39;42.52;97710.91;5024066;28;20206;-74
2021/04/10 01:14:45;;;;;;;4.13;1.00;;;;;;;14.44;42.38;97713.72;5020807;28;20212;-76
2021/04/10 01:17:16;;;;;;;2.33;1.07;;;;;;;14.33;42.67;97719.91;5024418;28;20230;-77
2021/04/10 01:20:08;;;;;;;3.80;1.37;;;;;;;14.46;42.50;97708.94;5027245;28;20205;-76
2021/04/10 01:23:15;;;;;;;3.40;0.97;;;;;;;14.51;42.42;97723.31;5019818;28;20243;-76
2021/04/10 01:25:50;;;;;;;3.07;1.20;;;;;;;14.44;42.57;97716.41;5020062;28;20211;-75
2021/04/10 01:28:32;;;;;;;4.57;1.10;;;;;;;14.45;42.60;97709.97;5009567;28;20599;-76
2021/04/10 01:31:00;;;;;;;4.07;0.90;;;;;;;14.34;43.00;97719.66;5015254;28;20222;-75
2021/04/10 01:33:29;;;;;;;2.13;1.10;;;;;;;14.29;42.99;97721.41;5034563;28;20271;-75
2021/04/10 01:35:58;;;;;;;1.10;0.90;;;;;;;14.34;42.95;97718.84;5033189;28;20208;-75
2021/04/10 01:38:28;;;;;;;3.43;0.90;;;;;;;14.27;43.63;97720.81;5033619;28;20221;-75
2021/04/10 01:41:02;;;;;;;2.23;1.07;;;;;;;14.41;43.08;97717.69;5037060;28;20211;-75
2021/04/10 01:43:31;;;;;;;2.50;1.00;;;;;;;14.39;42.81;97716.28;5027967;28;20660;-74
2021/04/10 01:45:58;;;;;;;2.27;1.00;;;;;;;14.40;42.87;97707.19;5032737;28;20675;-76
2021/04/10 01:48:25;;;;;;;1.57;0.97;;;;;;;14.38;42.94;97715.44;5022472;28;20760;-75
2021/04/10 01:50:53;;;;;;;4.77;0.87;;;;;;;14.38;43.21;97709.28;5033674;28;20260;-74
2021/04/10 01:53:20;;;;;;;2.23;1.13;;;;;;;14.29;43.69;97713.34;5033891;28;20202;-75
2021/04/10 01:55:48;;;;;;;6.90;1.00;;;;;;;14.13;44.27;97719.38;5031354;28;20206;-75
2021/04/10 01:58:16;;;;;;;4.03;0.90;;;;;;;14.28;43.83;97714.41;5024293;28;20234;-75
2021/04/10 02:00:44;;;;;;;2.17;1.27;;;;;;;14.34;44.08;97711.59;5032404;28;20206;-75
2021/04/10 02:03:12;;;;;;;1.87;0.80;;;;;;;14.29;43.62;97705.31;5033247;28;20226;-75
2021/04/10 02:05:39;;;;;;;2.13;1.30;;;;;;;14.29;43.93;97710.66;5032292;28;20604;-76
2021/04/10 02:08:10;;;;;;;3.07;0.90;;;;;;;14.36;43.70;97708.69;5027419;28;20230;-75
2021/04/10 02:10:37;;;;;;;2.27;0.93;;;;;;;14.37;43.77;97711.13;5033021;28;20575;-75
2021/04/10 02:13:05;;;;;;;1.37;1.00;;;;;;;14.31;43.99;97705.88;5028267;28;20684;-76
2021/04/10 02:15:32;;;;;;;2.63;0.90;;;;;;;14.42;43.92;97707.75;5032697;28;20218;-75
2021/04/10 02:18:00;;;;;;;2.10;1.00;;;;;;;14.25;44.39;97707.63;5028821;28;20576;-75
2021/04/10 02:20:27;;;;;;;2.33;0.87;;;;;;;14.31;44.21;97709.38;5027063;28;20207;-75
2021/04/10 02:22:56;;;;;;;3.63;0.70;;;;;;;14.03;45.61;97709.16;5033264;28;20231;-75
2021/04/10 02:25:26;;;;;;;2.97;1.10;;;;;;;14.16;45.20;97711.66;5031484;28;20671;-76
2021/04/10 02:27:53;;;;;;;1.80;1.07;;;;;;;14.03;45.69;97708.38;5029196;28;20597;-75
2021/04/10 02:30:21;;;;;;;4.33;1.17;;;;;;;14.19;45.39;97713.06;5031086;28;20236;-74
2021/04/10 02:32:53;;;;;;;2.23;0.80;;;;;;;14.07;45.96;97705.00;5033675;28;20255;-76
2021/04/10 02:35:25;;;;;;;4.07;1.10;;;;;;;14.06;45.90;97710.56;5029924;28;20215;-75
2021/04/10 02:37:52;;;;;;;3.33;1.00;;;;;;;14.09;45.93;97710.13;5031846;28;20236;-76
2021/04/10 02:40:21;;;;;;;2.83;0.93;;;;;;;14.10;46.04;97709.06;5031791;28;20264;-75
2021/04/10 02:42:49;;;;;;;2.20;0.73;;;;;;;14.14;46.14;97702.22;5032331;28;20595;-76
2021/04/10 02:45:20;;;;;;;2.47;0.83;;;;;;;14.04;46.77;97701.94;5029509;28;20209;-75
2021/04/10 02:47:48;;;;;;;1.70;0.93;;;;;;;14.01;46.71;97697.88;5030197;28;20229;-76
2021/04/10 02:50:18;;;;;;;3.27;1.20;;;;;;;13.98;46.94;97694.81;5028277;28;20214;-75
2021/04/10 02:52:49;;;;;;;3.27;1.20;;;;;;;14.01;47.04;97694.34;5029241;28;20210;-75
2021/04/10 02:55:18;;;;;;;2.87;0.93;;;;;;;13.94;47.33;97693.66;5026472;28;20249;-75
2021/04/10 02:57:45;;;;;;;3.13;1.10;;;;;;;13.83;47.80;97689.88;5030515;28;20240;-74
2021/04/10 03:00:17;;;;;;;1.60;0.80;;;;;;;13.83;47.88;97692.56;5030260;28;20592;-75
2021/04/10 03:02:44;;;;;;;3.07;0.93;;;;;;;13.86;48.13;97691.28;5032861;28;20230;-75
2021/04/10 03:05:13;;;;;;;2.40;1.10;;;;;;;13.94;48.23;97696.31;5031209;28;20203;-75
2021/04/10 03:07:46;;;;;;;4.90;1.10;;;;;;;13.77;48.52;97690.00;5029456;28;20288;-75
2021/04/10 03:10:14;;;;;;;3.63;0.90;;;;;;;13.99;48.03;97701.81;5029454;28;20207;-74
2021/04/10 03:12:41;;;;;;;2.03;0.90;;;;;;;14.03;47.86;97706.50;5025945;28;20221;-74
2021/04/10 03:15:09;;;;;;;2.27;1.00;;;;;;;14.07;48.05;97705.00;5051791;23;20237;-71
2021/04/10 03:17:38;;;;;;;1.40;0.70;;;;;;;14.07;48.48;97698.78;5045582;28;20203;-70
2021/04/10 03:20:07;;;;;;;2.43;0.80;;;;;;;14.03;48.44;97701.13;5050574;28;20660;-71
2021/04/10 03:22:33;;;;;;;2.37;1.00;;;;;;;13.95;49.62;97697.97;5048511;28;20222;-70
2021/04/10 03:25:01;;;;;;;1.97;0.90;;;;;;;13.99;49.55;97699.94;5038317;28;20238;-70
2021/04/10 03:27:28;;;;;;;2.17;0.77;;;;;;;13.96;51.48;97689.69;5027989;28;20685;-70
2021/04/10 03:29:55;;;;;;;2.73;1.00;;;;;;;13.88;52.36;97694.56;5028034;28;20650;-70
2021/04/10 03:32:22;;;;;;;1.27;0.80;;;;;;;13.93;52.10;97690.13;5022635;28;20663;-70
2021/04/10 03:34:49;;;;;;;2.30;1.00;;;;;;;13.99;52.06;97697.25;5024960;28;20586;-70
2021/04/10 03:37:16;;;;;;;2.57;1.03;;;;;;;13.98;53.72;97690.25;5023305;28;20217;-70
2021/04/10 03:39:43;;;;;;;0.77;0.60;;;;;;;13.74;55.98;97688.59;5028632;28;20238;-69
2021/04/10 03:42:11;;;;;;;2.17;0.90;;;;;;;13.78;55.72;97687.06;5028618;28;20242;-70
2021/04/10 03:44:38;;;;;;;3.00;1.00;;;;;;;13.76;57.33;97688.34;5025484;28;20702;-70
2021/04/10 03:47:06;;;;;;;2.97;1.10;;;;;;;13.84;56.86;97690.69;5029586;28;20228;-70
2021/04/10 03:49:33;;;;;;;1.60;0.70;;;;;;;13.84;56.96;97701.44;5027456;28;20211;-70
2021/04/10 03:52:00;;;;;;;0.77;0.70;;;;;;;13.78;56.98;97689.75;5023233;28;20199;-70
2021/04/10 03:54:26;;;;;;;2.50;1.30;;;;;;;13.76;58.38;97689.16;5025158;28;20229;-70
2021/04/10 03:56:53;;;;;;;1.77;0.90;;;;;;;13.68;59.31;97691.34;5027283;28;20213;-70
2021/04/10 03:59:21;;;;;;;3.27;1.10;;;;;;;13.59;62.25;97690.03;5025371;28;20206;-70
2021/04/10 04:01:48;;;;;;;2.33;0.97;;;;;;;13.44;63.60;97689.63;5026986;28;20222;-70
2021/04/10 04:04:14;;;;;;;1.30;1.13;;;;;;;13.42;62.92;97697.06;5025330;28;20241;-70
2021/04/10 04:06:41;;;;;;;1.67;0.80;;;;;;;13.42;62.77;97694.41;5022728;28;20736;-70
2021/04/10 04:09:08;;;;;;;2.63;1.27;;;;;;;13.68;61.25;97707.44;5025856;28;20208;-70
2021/04/10 04:11:35;;;;;;;2.53;1.00;;;;;;;13.35;64.09;97709.72;5027266;28;20200;-70
2021/04/10 04:14:02;;;;;;;1.23;0.77;;;;;;;13.37;62.80;97713.00;5019223;28;20671;-70
2021/04/10 04:16:29;;;;;;;1.67;1.10;;;;;;;13.53;62.24;97707.03;5022743;28;20256;-70
2021/04/10 04:18:56;;;;;;;1.80;0.80;;;;;;;13.44;62.66;97708.38;5024547;28;20216;-70
2021/04/10 04:21:23;;;;;;;3.73;0.80;;;;;;;13.56;62.33;97702.03;5019723;28;20322;-69
2021/04/10 04:23:50;;;;;;;2.37;0.80;;;;;;;13.62;61.70;97705.69;5023989;28;20210;-70
2021/04/10 04:26:16;;;;;;;3.97;1.10;;;;;;;13.49;62.72;97706.66;5018211;28;20596;-70
2021/04/10 04:28:43;;;;;;;0.90;0.67;;;;;;;13.43;63.24;97720.16;5030729;28;20201;-70
2021/04/10 04:31:10;;;;;;;1.27;0.80;;;;;;;13.47;63.38;97718.66;5025591;28;20212;-70
2021/04/10 04:33:37;;;;;;;2.20;0.97;;;;;;;13.26;64.50;97716.44;5027295;28;20205;-70
2021/04/10 04:36:05;;;;;;;4.17;1.00;;;;;;;13.42;63.77;97722.00;5022904;28;20230;-69
2021/04/10 04:38:32;;;;;;;2.47;1.23;;;;;;;13.41;64.26;97722.22;5023896;28;20207;-70
2021/04/10 04:40:59;;;;;;;1.27;0.70;;;;;;;13.55;63.16;97719.16;5021114;28;20219;-70
2021/04/10 04:43:26;;;;;;;2.40;0.63;;;;;;;13.52;63.75;97734.88;5019708;28;20221;-70
2021/04/10 04:45:52;;;;;;;2.83;1.00;;;;;;;13.34;65.02;97727.69;5025071;28;20571;-70
2021/04/10 04:48:19;;;;;;;1.80;0.80;;;;;;;13.35;64.60;97739.19;5029768;28;20208;-70
2021/04/10 04:50:47;;;;;;;3.50;1.47;;;;;;;13.30;65.19;97739.06;5026854;28;20677;-70
2021/04/10 04:53:14;;;;;;;2.67;1.00;;;;;;;13.42;64.74;97750.69;5028763;28;20205;-70
2021/04/10 04:55:40;;;;;;;3.40;0.80;;;;;;;13.18;66.07;97749.69;5024207;28;20272;-70
2021/04/10 04:58:07;;;;;;;1.57;0.90;;;;;;;12.93;66.38;97755.09;5029668;28;20801;-70
2021/04/10 05:00:34;;;;;;;2.77;0.80;;;;;;;13.11;66.23;97759.69;5029772;28;20202;-69
2021/04/10 05:03:01;;;;;;;1.20;0.70;;;;;;;13.11;65.80;97761.56;5030151;28;20232;-70
2021/04/10 05:05:28;;;;;;;1.30;0.80;;;;;;;13.05;68.51;97757.91;5028085;28;20240;-70
2021/04/10 05:07:56;;;;;;;3.27;0.80;;;;;;;12.68;78.40;97744.66;5033262;28;20207;-71
2021/04/10 05:10:22;;;;;;;3.87;1.07;;;;;;;12.67;84.49;97746.50;5032588;28;20204;-71
2021/04/10 05:12:49;;;;;;;3.77;1.00;;;;;;;12.55;87.00;97772.34;5034341;28;20670;-70
2021/04/10 05:15:16;;;;;;;1.33;0.83;;;;;;;12.33;87.90;97753.16;5031148;28;20245;-75
2021/04/10 05:17:43;;;;;;;2.90;1.17;;;;;;;12.37;86.58;97758.94;5033067;28;20207;-75
2021/04/10 05:20:13;;;;;;;2.70;1.10;;;;;;;12.43;85.76;97766.09;5031231;28;20737;-71
2021/04/10 05:22:40;;;;;;;2.73;1.10;;;;;;;12.38;85.09;97777.41;5029421;28;20225;-72
2021/04/10 05:25:09;;;;;;;3.03;0.97;;;;;;;12.50;84.17;97780.22;5030454;28;20232;-72
2021/04/10 05:27:36;;;;;;;4.17;1.10;;;;;;;12.61;84.38;97774.16;5025247;28;20202;-71
2021/04/10 05:30:04;;;;;;;3.40;0.90;;;;;;;12.63;82.72;97784.66;5032338;28;20210;-71
2021/04/10 05:32:30;;;;;;;2.57;1.00;;;;;;;12.61;83.51;97787.53;5030219;28;20205;-73
2021/04/10 05:34:57;;;;;;;1.37;1.03;;;;;;;12.93;80.26;97795.28;5027322;28;20233;-72
2021/04/10 05:37:24;;;;;;;4.50;0.70;;;;;;;12.97;79.45;97794.88;5027186;28;20705;-72
2021/04/10 05:39:51;;;;;;;3.03;0.90;;;;;;;12.85;81.45;97800.09;5023602;28;20203;-70
2021/04/10 05:42:18;;;;;;;3.23;0.93;;;;;;;12.80;81.09;97799.94;5029261;28;20235;-72
2021/04/10 05:44:45;;;;;;;1.33;0.93;;;;;;;12.78;81.53;97810.84;5028258;28;20227;-72
2021/04/10 05:47:12;;;;;;;1.83;0.70;;;;;;;12.98;80.20;97810.72;5028727;28;20209;-72
2021/04/10 05:49:39;;;;;;;2.20;0.93;;;;;;;12.94;78.78;97815.66;5028352;28;20205;-72
2021/04/10 05:52:06;;;;;;;2.27;0.90;;;;;;;12.80;77.72;97824.03;5026747;28;20199;-72
2021/04/10 05:54:32;;;;;;;2.70;0.90;;;;;;;12.89;76.17;97828.88;5024104;28;20252;-72
2021/04/10 05:56:59;;;;;;;3.63;0.90;;;;;;;12.99;74.69;97822.25;5022346;28;20259;-73
2021/04/10 05:59:27;;;;;;;4.40;1.10;;;;;;;12.98;74.38;97818.78;5029111;28;20199;-72
2021/04/10 06:01:54;;;;;;;4.03;1.63;;;;;;;13.12;73.35;97822.13;5032193;28;20250;-71
2021/04/10 06:04:20;;;;;;;4.83;0.97;;;;;;;13.22;71.87;97825.94;5028209;28;20225;-71
2021/04/10 06:06:47;;;;;;;2.60;1.00;;;;;;;13.08;72.24;97820.94;5026390;28;20574;-70
2021/04/10 06:09:14;;;;;;;3.97;1.00;;;;;;;13.29;70.80;97824.03;5029160;28;20234;-71
2021/04/10 06:11:41;;;;;;;3.70;1.00;;;;;;;13.27;70.14;97828.75;5030892;28;20209;-70
2021/04/10 06:14:08;;;;;;;3.87;1.17;;;;;;;13.43;69.67;97832.72;5029186;28;20217;-70
2021/04/10 06:16:35;;;;;;;7.50;1.30;;;;;;;13.45;69.37;97841.34;5029674;28;20682;-70
2021/04/10 06:19:02;;;;;;;2.93;0.90;;;;;;;13.28;70.10;97843.00;5027224;28;20210;-71
2021/04/10 06:21:29;;;;;;;4.90;1.10;;;;;;;13.26;69.54;97842.38;5029278;28;20218;-70
2021/04/10 06:23:56;;;;;;;1.83;1.03;;;;;;;13.22;69.69;97843.88;5032519;28;20578;-71
2021/04/10 06:26:22;;;;;;;2.03;1.00;;;;;;;13.04;71.68;97836.63;5026566;28;20211;-72
2021/04/10 06:28:49;;;;;;;2.03;1.30;;;;;;;13.41;69.56;97845.53;5022387;28;20211;-71
2021/04/10 06:31:16;;;;;;;2.70;0.90;;;;;;;13.52;68.62;97847.50;5023002;28;20209;-71
2021/04/10 06:33:44;;;;;;;4.00;1.00;;;;;;;13.62;68.74;97845.91;5021977;28;20212;-74
2021/04/10 06:36:11;;;;;;;5.67;1.43;;;;;;;13.69;67.94;97852.03;5023202;28;20301;-72
2021/04/10 06:38:39;;;;;;;6.13;1.60;;;;;;;13.72;67.24;97856.13;5022592;28;20515;-75
2021/04/10 06:41:06;;;;;;;3.13;1.60;;;;;;;13.68;68.40;97850.38;5027132;28;20196;-75
2021/04/10 06:43:33;;;;;;;1.60;1.00;;;;;;;13.61;67.08;97855.00;5028127;28;20225;-71
2021/04/10 06:46:00;;;;;;;8.43;1.43;;;;;;;13.62;69.37;97851.28;5023106;28;20704;-71
2021/04/10 06:48:27;;;;;;;3.27;1.27;;;;;;;13.72;68.42;97856.13;5024239;28;20198;-72
2021/04/10 06:50:55;;;;;;;2.03;1.00;;;;;;;13.86;67.47;97860.25;5023319;28;20677;-76
2021/04/10 06:53:22;;;;;;;4.10;1.00;;;;;;;13.68;68.62;97871.03;5027571;28;20687;-70
2021/04/10 06:55:51;;;;;;;4.97;1.07;;;;;;;13.72;69.87;97864.16;5021586;28;20345;-71
2021/04/10 06:58:32;;;;;;;3.17;0.90;;;;;;;13.99;69.21;97868.16;5023643;28;20226;-70
2021/04/10 07:00:59;;;;;;;2.30;1.00;;;;;;;13.99;74.75;97860.13;5027887;28;20207;-71
2021/04/10 07:03:26;;;;;;;1.47;1.07;;;;;;;13.83;74.12;97861.53;5031604;28;20273;-72
2021/04/10 07:05:55;;;;;;;6.53;1.23;;;;;;;13.33;82.95;97860.03;5022287;28;20313;-71
2021/04/10 07:08:22;;;;;;;3.83;1.23;;;;;;;13.48;83.22;97851.66;5026268;28;20211;-70
2021/04/10 07:10:50;;;;;;;8.03;1.30;;;;;;;13.55;80.90;97863.94;5024833;28;20216;-72
2021/04/10 07:13:17;;;;;;;5.33;1.00;;;;;;;13.37;80.29;97866.59;5026933;28;20200;-72
2021/04/10 07:15:44;;;;;;;2.63;1.03;;;;;;;13.57;80.00;97867.22;5037094;28;20302;-71
2021/04/10 07:18:11;;;;;;;1.53;0.90;;;;;;;13.72;75.06;97875.69;5045486;28;20199;-71
2021/04/10 07:20:39;;;;;;;6.47;1.00;;;;;;;13.76;74.88;97870.69;5047625;28;20201;-78
2021/04/10 07:23:09;;;;;;;2.70;1.00;;;;;;;13.66;74.22;97875.78;5037151;28;20225;-70
2021/04/10 07:25:37;;;;;;;1.30;0.80;;;;;;;13.78;74.18;97879.38;5026697;28;20222;-70
2021/04/10 07:28:27;;;;;;;3.23;1.20;;;;;;;13.83;73.92;97885.69;5024626;28;20198;-76
2021/04/10 07:30:58;;;;;;;1.60;1.20;;;;;;;13.66;74.47;97887.31;5031207;28;20200;-71
2021/04/10 07:33:25;;;;;;;4.47;1.10;;;;;;;13.86;72.48;97887.09;5034157;28;20199;-74
2021/04/10 07:35:53;;;;;;;3.27;1.10;;;;;;;13.73;73.56;97900.66;5022813;28;20253;-70
2021/04/10 07:38:27;;;;;;;4.90;1.23;;;;;;;13.60;74.95;97890.91;5034265;28;20208;-73
2021/04/10 07:40:55;;;;;;;3.73;0.90;;;;;;;13.72;73.73;97893.69;5020230;28;20207;-70
2021/04/10 07:43:26;;;;;;;2.73;1.10;;;;;;;13.70;74.05;97887.69;5028723;28;20295;-69
2021/04/10 07:46:21;;;;;;;3.60;1.10;;;;;;;13.33;74.44;97900.22;5018677;28;20230;-70
2021/04/10 07:49:03;;;;;;;2.23;0.87;;;;;;;13.32;75.26;97890.56;5027046;28;20214;-71
2021/04/10 07:51:31;;;;;;;1.50;1.00;;;;;;;13.52;74.55;97893.88;5022947;28;20211;-74
2021/04/10 07:54:00;;;;;;;1.40;0.80;;;;;;;13.61;74.09;97902.44;5025200;28;20680;-68
2021/04/10 07:56:37;;;;;;;3.50;1.00;;;;;;;13.81;73.09;97903.03;5019586;28;20209;-68
2021/04/10 07:59:04;;;;;;;4.30;1.03;;;;;;;13.83;72.42;97917.06;5026885;28;20202;-69
2021/04/10 08:01:31;;;;;;;2.47;0.77;;;;;;;13.75;73.34;97911.97;5023769;28;20206;-69
2021/04/10 08:04:13;;;;;;;2.03;0.80;;;;;;;13.30;78.26;97914.09;5020754;28;20217;-70
2021/04/10 08:06:56;;;;;;;1.87;0.90;;;;;;;13.39;83.87;97911.94;5020562;28;20209;-69
2021/04/10 08:09:33;;;;;;;1.13;0.90;;;;;;;13.26;88.13;97912.88;5026658;28;20209;-69
2021/04/10 08:12:00;;;;;;;5.00;1.10;;;;;;;13.23;90.27;97916.00;5022617;28;20217;-70
2021/04/10 08:14:39;;;;;;;1.83;1.10;;;;;;;13.41;88.62;97907.19;5029417;28;20234;-69
2021/04/10 08:17:07;;;;;;;1.57;1.10;;;;;;;13.38;90.01;97915.69;5030026;28;20302;-69
2021/04/10 08:19:35;;;;;;;4.10;0.93;;;;;;;13.23;88.21;97915.19;5020063;28;20226;-70
2021/04/10 08:22:05;;;;;;;2.77;0.90;;;;;;;13.55;84.56;97917.56;5025807;28;20744;-69
2021/04/10 08:24:36;;;;;;;2.80;1.07;;;;;;;13.68;85.69;97913.94;5019342;28;20241;-70
2021/04/10 08:27:05;;;;;;;4.00;0.70;;;;;;;13.82;81.30;97915.44;5021160;28;20607;-70
2021/04/10 08:29:32;;;;;;;2.00;0.73;;;;;;;13.68;83.72;97917.41;5029625;28;20263;-70
2021/04/10 08:32:01;;;;;;;3.58;1.17;;;;;;;13.44;84.37;97923.66;5027256;28;20438;-69
2021/04/10 08:34:28;;;;;;;1.67;1.10;;;;;;;13.94;79.26;97921.69;5025709;28;20280;-70
2021/04/10 08:36:57;;;;;;;3.30;1.10;;;;;;;14.01;78.35;97928.59;5026530;28;20210;-72
2021/04/10 08:39:31;;;;;;;1.83;0.90;;;;;;;14.02;77.76;97921.34;5028861;28;20226;-71
2021/04/10 08:42:01;;;;;;;1.60;0.73;;;;;;;14.26;77.49;97932.06;5027533;28;20241;-73
2021/04/10 08:44:32;;;;;;;1.47;0.90;;;;;;;14.39;76.18;97934.56;5028693;28;20472;-75
2021/04/10 08:47:00;;;;;;;1.23;0.80;;;;;;;14.48;75.51;97935.09;5027579;28;20203;-72
2021/04/10 08:49:29;;;;;;;1.47;0.87;;;;;;;14.27;79.20;97922.94;5022094;28;20203;-77
2021/04/10 08:52:03;;;;;;;2.30;1.00;;;;;;;14.27;76.99;97935.53;5025908;28;20249;-72
2021/04/10 08:54:33;;;;;;;2.00;1.07;;;;;;;13.98;78.33;97929.03;5020643;28;20230;-71
2021/04/10 08:57:06;;;;;;;2.00;0.93;;;;;;;14.38;77.38;97924.88;5016034;28;20214;-71
2021/04/10 08:59:39;;;;;;;2.60;0.63;;;;;;;14.72;75.77;97932.25;5025377;28;20242;-71
2021/04/10 09:02:08;;;;;;;3.17;0.93;;;;;;;13.97;76.84;97923.91;5027315;28;20249;-75
2021/04/10 09:04:58;;;;;;;2.57;0.90;;;;;;;14.18;75.85;97918.09;5022700;28;20242;-73
2021/04/10 09:08:07;;;;;;;3.80;1.20;;;;;;;14.29;72.72;97922.72;5020415;28;20211;-76
2021/04/10 09:10:52;;;;;;;2.87;1.23;;;;;;;14.53;71.88;97924.47;5023383;28;20265;-77
2021/04/10 09:13:44;;;;;;;2.90;1.30;;;;;;;14.58;69.46;97925.41;5022279;28;20987;-79
2021/04/10 09:16:28;;;;;;;3.10;0.90;;;;;;;14.78;67.36;97927.81;5022865;28;20235;-75
2021/04/10 09:18:57;;;;;;;5.13;1.73;;;;;;;14.89;67.13;97930.53;5032098;22;22754;-74
2021/04/10 09:21:35;;;;;;;2.17;0.87;;;;;;;15.19;63.88;97938.56;5032003;28;20260;-76
2021/04/10 09:24:20;;;;;;;3.30;1.00;;;;;;;15.02;65.45;97929.50;5029784;28;20207;-77
2021/04/10 09:27:02;;;;;;;2.23;0.97;;;;;;;14.80;64.60;97933.78;5029491;28;20206;-76
2021/04/10 09:29:31;;;;;;;4.00;0.70;;;;;;;15.11;64.78;97939.72;5028537;28;20223;-77
2021/04/10 09:32:00;;;;;;;7.50;1.30;;;;;;;15.37;61.68;97941.19;5028231;28;20708;-77
2021/04/10 09:34:49;;;;;;;3.00;1.23;;;;;;;15.07;64.87;97943.06;5036570;28;20251;-78
2021/04/10 09:37:59;;;;;;;4.80;1.00;;;;;;;15.27;61.93;97946.28;5033128;28;20570;-79
2021/04/10 09:40:50;;;;;;;2.00;0.90;;;;;;;15.11;62.81;97941.56;5027711;28;20262;-75
2021/04/10 09:43:22;;;;;;;2.70;0.90;;;;;;;15.43;60.41;97937.53;5029082;28;20235;-75
2021/04/10 09:45:51;;;;;;;5.70;1.20;;;;;;;15.47;60.40;97942.25;5031105;28;20207;-76
2021/04/10 09:48:26;;;;;;;2.37;0.70;;;;;;;15.67;58.46;97944.56;5032372;28;20297;-79
2021/04/10 09:51:12;;;;;;;3.17;1.03;;;;;;;15.86;58.64;97941.50;5031660;28;20209;-78
2021/04/10 09:53:39;;;;;;;2.93;1.00;;;;;;;15.57;58.79;97942.47;5033008;28;20292;-76
2021/04/10 09:56:09;;;;;;;2.10;1.00;;;;;;;15.84;56.86;97937.41;5038734;28;20204;-77
2021/04/10 09:58:38;;;;;;;2.33;0.80;;;;;;;16.20;55.23;97947.88;5033011;28;20231;-82
2021/04/10 10:01:14;;;;;;;5.47;0.80;;;;;;;16.24;55.89;97944.50;5044090;28;20323;-78
2021/04/10 10:03:41;;;;;;;1.90;0.63;;;;;;;15.63;59.58;97933.47;5033184;28;20225;-77
2021/04/10 10:06:21;;;;;;;0.80;0.73;;;;;;;16.06;55.86;97941.16;5025694;28;20210;-76
2021/04/10 10:08:49;;;;;;;4.30;0.80;;;;;;;15.70;56.47;97942.22;5031716;28;20308;-79
2021/04/10 10:11:17;;;;;;;3.13;1.00;;;;;;;15.20;59.49;97932.13;5028833;28;20581;-77
2021/04/10 10:13:44;;;;;;;2.10;0.70;;;;;;;15.59;60.00;97923.41;5033403;28;20204;-75
2021/04/10 10:16:12;;;;;;;1.40;0.70;;;;;;;15.59;57.90;97934.16;5029601;28;20197;-74
2021/04/10 10:18:40;;;;;;;1.57;0.60;;;;;;;15.45;57.13;97933.56;5025204;28;20681;-80
2021/04/10 10:21:09;;;;;;;4.37;1.10;;;;;;;15.82;55.44;97936.84;5025597;28;20205;-79
2021/04/10 10:23:38;;;;;;;1.67;0.80;;;;;;;15.64;56.22;97936.97;5030918;28;20222;-75
2021/04/10 10:26:10;;;;;;;2.87;0.70;;;;;;;16.24;53.19;97947.19;5026198;28;20200;-75
2021/04/10 10:28:39;;;;;;;1.30;0.97;;;;;;;16.37;52.52;97935.34;5030155;28;20198;-80
2021/04/10 10:31:07;;;;;;;0.70;0.53;;;;;;;16.50;52.37;97930.50;5027897;28;20206;-77
2021/04/10 10:33:35;;;;;;;1.00;0.90;;;;;;;16.43;52.58;97931.72;5035083;28;20190;-73
2021/04/10 10:36:03;;;;;;;3.23;0.93;;;;;;;15.98;52.95;97938.81;5023662;28;20212;-75
2021/04/10 10:38:31;;;;;;;3.33;0.73;;;;;;;15.83;55.04;97927.72;5031300;28;20249;-77
2021/04/10 10:40:58;;;;;;;2.47;0.80;;;;;;;15.88;54.37;97928.66;5025126;28;20199;-73
2021/04/10 10:43:26;;;;;;;1.53;0.67;;;;;;;16.07;52.83;97929.31;5027879;28;20357;-78
2021/04/10 10:45:55;;;;;;;2.13;0.73;;;;;;;16.28;51.46;97931.38;5025547;28;20222;-78
2021/04/10 10:48:24;;;;;;;2.10;0.60;;;;;;;16.26;51.79;97938.88;5024610;28;20209;-77
2021/04/10 10:50:53;;;;;;;1.07;0.67;;;;;;;16.75;49.94;97924.78;5029676;28;20207;-75
2021/04/10 10:53:21;;;;;;;4.60;0.70;;;;;;;17.18;48.19;97927.72;5025558;28;20210;-81
2021/04/10 10:56:13;;;;;;;2.83;1.03;;;;;;;17.54;46.39;97925.38;5027247;28;20206;-77
2021/04/10 10:58:43;;;;;;;1.33;0.70;;;;;;;17.28;47.95;97931.38;5006961;28;20231;-76
2021/04/10 11:01:21;;;;;;;1.00;0.50;;;;;;;17.84;45.78;97925.00;5027787;28;20207;-78
2021/04/10 11:03:57;;;;;;;2.57;0.70;;;;;;;17.62;46.10;97924.13;5033788;28;20213;-74
2021/04/10 11:06:26;;;;;;;2.10;0.90;;;;;;;16.86;47.58;97926.59;5030733;28;20287;-78
2021/04/10 11:08:54;;;;;;;1.43;0.67;;;14.10;1.00;;;16.42;49.58;97920.09;5033133;28;20216;-78
2021/04/10 11:11:23;;;;;;;2.70;0.93;;;13.90;1.00;;;17.12;47.49;97916.00;5033402;28;20203;-79
2021/04/10 11:13:50;;;;;;;2.87;0.97;;;14.00;1.00;;;17.63;46.14;97914.97;5032065;28;20202;-79
2021/04/10 11:16:18;;;;;;;3.13;1.00;;;14.10;1.00;;;16.43;49.24;97905.59;5026256;28;20218;-78
2021/04/10 11:18:45;;;;;;;1.20;0.73;;;13.90;1.00;;;16.95;49.87;97901.72;5029562;28;20303;-78
2021/04/10 11:21:18;;;;;;;3.57;0.87;;;13.90;1.00;;;16.21;52.66;97896.50;5030891;28;20203;-86
2021/04/10 11:24:10;;;;;;;2.60;1.07;;;13.90;1.00;;;17.21;49.35;97901.06;5038699;28;20271;-74
2021/04/10 11:26:52;;;;;;;1.90;0.77;;;14.10;1.00;;;18.08;45.40;97900.22;5034585;28;20211;-78
2021/04/10 11:29:33;;;;;;;2.17;0.70;;;14.40;1.00;;;18.17;44.03;97904.09;5034535;28;20266;-79
2021/04/10 11:32:13;;;;;;;4.10;0.80;;;14.80;1.00;;;18.12;44.36;97895.94;5031762;28;20238;-81
2021/04/10 11:34:43;;;;;;;3.00;0.87;;;14.80;1.00;;;18.72;43.05;97904.78;5022213;28;20297;-81
2021/04/10 11:37:11;;;;;;;2.10;0.70;;;15.20;1.00;;;18.25;44.07;97894.75;5032489;28;20303;-82
2021/04/10 11:39:57;;;;;;;1.43;0.87;;;15.10;1.00;;;16.09;51.47;97879.56;5030386;28;20225;-80
2021/04/10 11:42:30;;;;;;;1.20;0.70;;;14.30;1.00;;;17.32;47.00;97878.56;5029414;28;20763;-81